Hughes, Alaska
Current Conditions -  °F | °C
As of 5:55 PM on Tuesday 21 Oct 2014 (Local Time) from PAIM Reporting Station
Broken Clouds Broken Clouds  
Wind Chill: 17°   Ceiling: 7500
Heat Index: 28°   Visibility: 10mi
Dew Point: 20°   Wind: 13mph
Humidity: 74%   Direction: 90°E
Pressure: 29.52"   Gusts: NA
Location:  66.05°N, 154.26°W
Report Text: PAIM 220155Z AUTO 09011KT 10SM FEW050 BKN075 M02/M06 A2952 RMK AO2 SLP017 T10251065
Loading
Personal Weather Stations






























Interactive Weather Map
Tropical Storm Tracking
New forecast layout! Learn more

10-Day Weather Forecast

Advertisements
Track Severe Weather on mobile